KDNS/DNS METAR and TAF weather

Enter ICAO airport designator
Station Type Date Time Source
KDNS METAR 2024/04/15 09:55 UTC NOAA

KDNS 150955Z AUTO 08007G12KT 10SM CLR 12/M03 A2992 RMK AO2


Station Type Date Time Source
KDNS Decoded METAR 2024/04/15 09:55 UTC NOAA

Denison, IA, United States (KDNS) 41-59N 095-23W
Apr 15, 2024 - 05:55 AM EDT / 2024.04.15 0955 UTC
Wind: from the E (080 degrees) at 8 MPH (7 KT) gusting to 14 MPH (12 KT):0
Visibility: 10 mile(s):0
Sky conditions: clear
Temperature: 53 F (12 C)
Dew Point: 26 F (-3 C)
Relative Humidity: 34%
Pressure (altimeter): 29.92 in. Hg (1013 hPa)
ob: KDNS 150955Z AUTO 08007G12KT 10SM CLR 12/M03 A2992 RMK AO2
cycle: 10

Station Type Date Time Source
KDNS TAF UTC NOAA

Error!

Example: see airport list